sensor_id;sensor_type;location;lat;lon;timestamp;temperature;humidity
26909;DHT22;14477;51.038;4.588;2023-02-13T00:00:00;6.40;98.90
26909;DHT22;14477;51.038;4.588;2023-02-13T00:02:26;6.30;99.00
26909;DHT22;14477;51.038;4.588;2023-02-13T00:04:51;6.20;98.90
26909;DHT22;14477;51.038;4.588;2023-02-13T00:07:17;6.20;98.90
26909;DHT22;14477;51.038;4.588;2023-02-13T00:09:43;6.20;98.90
26909;DHT22;14477;51.038;4.588;2023-02-13T00:12:09;6.20;98.90
26909;DHT22;14477;51.038;4.588;2023-02-13T00:14:37;6.10;98.90
26909;DHT22;14477;51.038;4.588;2023-02-13T00:17:03;6.10;98.90
26909;DHT22;14477;51.038;4.588;2023-02-13T00:19:28;6.00;98.90
26909;DHT22;14477;51.038;4.588;2023-02-13T00:21:54;6.10;98.90
26909;DHT22;14477;51.038;4.588;2023-02-13T00:24:20;6.00;98.90
26909;DHT22;14477;51.038;4.588;2023-02-13T00:26:46;6.00;98.90
26909;DHT22;14477;51.038;4.588;2023-02-13T00:29:12;5.90;99.00
26909;DHT22;14477;51.038;4.588;2023-02-13T00:31:38;5.90;99.10
26909;DHT22;14477;51.038;4.588;2023-02-13T00:34:03;5.90;99.10
26909;DHT22;14477;51.038;4.588;2023-02-13T00:36:29;5.90;99.00
26909;DHT22;14477;51.038;4.588;2023-02-13T00:38:55;5.90;99.00
26909;DHT22;14477;51.038;4.588;2023-02-13T00:41:21;5.80;99.00
26909;DHT22;14477;51.038;4.588;2023-02-13T00:43:48;5.80;99.00
26909;DHT22;14477;51.038;4.588;2023-02-13T00:46:14;5.80;99.00
26909;DHT22;14477;51.038;4.588;2023-02-13T00:48:40;5.80;99.00
26909;DHT22;14477;51.038;4.588;2023-02-13T00:51:06;5.70;99.00
26909;DHT22;14477;51.038;4.588;2023-02-13T00:53:32;5.60;98.90
26909;DHT22;14477;51.038;4.588;2023-02-13T00:55:59;5.60;98.90
26909;DHT22;14477;51.038;4.588;2023-02-13T00:58:24;5.60;98.80
26909;DHT22;14477;51.038;4.588;2023-02-13T01:00:51;5.60;98.80
26909;DHT22;14477;51.038;4.588;2023-02-13T01:03:19;5.50;98.90
26909;DHT22;14477;51.038;4.588;2023-02-13T01:05:46;5.50;98.90
26909;DHT22;14477;51.038;4.588;2023-02-13T01:08:13;5.40;98.90
26909;DHT22;14477;51.038;4.588;2023-02-13T01:10:40;5.40;98.90
26909;DHT22;14477;51.038;4.588;2023-02-13T01:13:06;5.40;98.90
26909;DHT22;14477;51.038;4.588;2023-02-13T01:15:32;5.40;98.90
26909;DHT22;14477;51.038;4.588;2023-02-13T01:17:58;5.40;98.90
26909;DHT22;14477;51.038;4.588;2023-02-13T01:20:26;5.40;98.90
26909;DHT22;14477;51.038;4.588;2023-02-13T01:22:53;5.30;98.90
26909;DHT22;14477;51.038;4.588;2023-02-13T01:25:19;5.30;98.80
26909;DHT22;14477;51.038;4.588;2023-02-13T01:27:45;5.20;98.80
26909;DHT22;14477;51.038;4.588;2023-02-13T01:30:12;5.20;98.80
26909;DHT22;14477;51.038;4.588;2023-02-13T01:32:39;5.20;98.70
26909;DHT22;14477;51.038;4.588;2023-02-13T01:35:06;5.10;98.80
26909;DHT22;14477;51.038;4.588;2023-02-13T01:37:32;5.10;98.70
26909;DHT22;14477;51.038;4.588;2023-02-13T01:39:58;5.10;98.70
26909;DHT22;14477;51.038;4.588;2023-02-13T01:42:27;5.10;98.70
26909;DHT22;14477;51.038;4.588;2023-02-13T01:51:05;4.90;98.70
26909;DHT22;14477;51.038;4.588;2023-02-13T01:53:37;4.90;98.80
26909;DHT22;14477;51.038;4.588;2023-02-13T01:58:43;4.80;98.80
26909;DHT22;14477;51.038;4.588;2023-02-13T02:01:10;4.80;98.80
26909;DHT22;14477;51.038;4.588;2023-02-13T02:03:41;4.80;98.80
26909;DHT22;14477;51.038;4.588;2023-02-13T02:06:13;4.80;99.00
26909;DHT22;14477;51.038;4.588;2023-02-13T02:08:40;4.80;99.00
26909;DHT22;14477;51.038;4.588;2023-02-13T02:11:14;4.70;99.00
26909;DHT22;14477;51.038;4.588;2023-02-13T02:13:41;4.70;99.00
26909;DHT22;14477;51.038;4.588;2023-02-13T02:16:07;4.70;99.00
26909;DHT22;14477;51.038;4.588;2023-02-13T02:18:33;4.70;99.00
26909;DHT22;14477;51.038;4.588;2023-02-13T02:37:28;4.60;99.10
26909;DHT22;14477;51.038;4.588;2023-02-13T02:43:29;4.60;99.10
26909;DHT22;14477;51.038;4.588;2023-02-13T02:49:34;4.50;99.00
26909;DHT22;14477;51.038;4.588;2023-02-13T02:52:10;4.50;99.00
26909;DHT22;14477;51.038;4.588;2023-02-13T02:55:04;4.50;99.00
26909;DHT22;14477;51.038;4.588;2023-02-13T02:57:34;4.50;99.00
26909;DHT22;14477;51.038;4.588;2023-02-13T03:00:22;4.40;99.00
26909;DHT22;14477;51.038;4.588;2023-02-13T03:03:27;4.40;99.10
26909;DHT22;14477;51.038;4.588;2023-02-13T03:06:27;4.40;99.20
26909;DHT22;14477;51.038;4.588;2023-02-13T03:09:00;4.40;99.30
26909;DHT22;14477;51.038;4.588;2023-02-13T03:11:49;4.40;99.30
26909;DHT22;14477;51.038;4.588;2023-02-13T03:14:34;4.40;99.40
26909;DHT22;14477;51.038;4.588;2023-02-13T03:17:01;4.30;99.40
26909;DHT22;14477;51.038;4.588;2023-02-13T03:20:19;4.30;99.40
26909;DHT22;14477;51.038;4.588;2023-02-13T03:23:21;4.30;99.40
26909;DHT22;14477;51.038;4.588;2023-02-13T03:26:27;4.40;99.50
26909;DHT22;14477;51.038;4.588;2023-02-13T03:29:14;4.40;99.50
26909;DHT22;14477;51.038;4.588;2023-02-13T03:34:37;4.40;99.50
26909;DHT22;14477;51.038;4.588;2023-02-13T03:37:29;4.40;99.60
26909;DHT22;14477;51.038;4.588;2023-02-13T03:43:08;4.40;99.70
26909;DHT22;14477;51.038;4.588;2023-02-13T03:45:37;4.40;99.70
26909;DHT22;14477;51.038;4.588;2023-02-13T03:48:29;4.40;99.60
26909;DHT22;14477;51.038;4.588;2023-02-13T03:51:20;4.40;99.90
26909;DHT22;14477;51.038;4.588;2023-02-13T03:53:50;4.40;99.60
26909;DHT22;14477;51.038;4.588;2023-02-13T03:56:18;4.40;99.60
26909;DHT22;14477;51.038;4.588;2023-02-13T03:59:07;4.40;99.60
26909;DHT22;14477;51.038;4.588;2023-02-13T04:02:21;4.40;99.50
26909;DHT22;14477;51.038;4.588;2023-02-13T04:05:08;4.30;99.50
26909;DHT22;14477;51.038;4.588;2023-02-13T04:07:37;4.30;99.50
26909;DHT22;14477;51.038;4.588;2023-02-13T04:10:10;4.30;99.50
26909;DHT22;14477;51.038;4.588;2023-02-13T04:13:05;4.30;99.50
26909;DHT22;14477;51.038;4.588;2023-02-13T04:15:35;4.30;99.60
26909;DHT22;14477;51.038;4.588;2023-02-13T04:18:29;4.30;99.60
26909;DHT22;14477;51.038;4.588;2023-02-13T04:21:00;4.20;99.60
26909;DHT22;14477;51.038;4.588;2023-02-13T04:23:26;4.30;99.70
26909;DHT22;14477;51.038;4.588;2023-02-13T04:25:53;4.20;99.70
26909;DHT22;14477;51.038;4.588;2023-02-13T04:28:19;4.20;99.70
26909;DHT22;14477;51.038;4.588;2023-02-13T04:30:45;4.30;99.80
26909;DHT22;14477;51.038;4.588;2023-02-13T04:33:11;4.30;99.90
26909;DHT22;14477;51.038;4.588;2023-02-13T04:35:37;4.30;99.90
26909;DHT22;14477;51.038;4.588;2023-02-13T04:38:03;4.30;99.90
26909;DHT22;14477;51.038;4.588;2023-02-13T04:40:29;4.30;99.90
26909;DHT22;14477;51.038;4.588;2023-02-13T04:42:55;4.30;99.90
26909;DHT22;14477;51.038;4.588;2023-02-13T04:45:20;4.30;99.90
26909;DHT22;14477;51.038;4.588;2023-02-13T04:47:51;4.40;99.90
26909;DHT22;14477;51.038;4.588;2023-02-13T04:50:18;4.40;99.90
26909;DHT22;14477;51.038;4.588;2023-02-13T04:52:44;4.40;99.90
26909;DHT22;14477;51.038;4.588;2023-02-13T04:55:10;4.40;99.90
26909;DHT22;14477;51.038;4.588;2023-02-13T04:57:36;4.40;99.90
26909;DHT22;14477;51.038;4.588;2023-02-13T05:00:02;4.40;99.90
26909;DHT22;14477;51.038;4.588;2023-02-13T05:02:29;4.30;99.90
26909;DHT22;14477;51.038;4.588;2023-02-13T05:04:55;4.30;99.90
26909;DHT22;14477;51.038;4.588;2023-02-13T05:07:21;4.30;99.90
26909;DHT22;14477;51.038;4.588;2023-02-13T05:09:47;4.30;99.90
26909;DHT22;14477;51.038;4.588;2023-02-13T05:12:13;4.30;99.90
26909;DHT22;14477;51.038;4.588;2023-02-13T05:14:39;4.20;99.90
26909;DHT22;14477;51.038;4.588;2023-02-13T05:17:05;4.20;99.90
26909;DHT22;14477;51.038;4.588;2023-02-13T05:19:31;4.20;99.90
26909;DHT22;14477;51.038;4.588;2023-02-13T05:21:57;4.20;99.90
26909;DHT22;14477;51.038;4.588;2023-02-13T05:24:41;4.20;99.90
26909;DHT22;14477;51.038;4.588;2023-02-13T05:27:07;4.20;99.90
26909;DHT22;14477;51.038;4.588;2023-02-13T05:29:33;4.20;99.90
26909;DHT22;14477;51.038;4.588;2023-02-13T05:31:58;4.10;99.90
26909;DHT22;14477;51.038;4.588;2023-02-13T05:34:26;4.10;99.90
26909;DHT22;14477;51.038;4.588;2023-02-13T05:36:53;4.10;99.90
26909;DHT22;14477;51.038;4.588;2023-02-13T05:39:19;4.00;99.80
26909;DHT22;14477;51.038;4.588;2023-02-13T05:41:46;4.00;99.80
26909;DHT22;14477;51.038;4.588;2023-02-13T05:44:13;4.00;99.80
26909;DHT22;14477;51.038;4.588;2023-02-13T05:46:40;4.00;99.80
26909;DHT22;14477;51.038;4.588;2023-02-13T05:49:07;4.00;99.80
26909;DHT22;14477;51.038;4.588;2023-02-13T05:51:34;4.00;99.80
26909;DHT22;14477;51.038;4.588;2023-02-13T05:54:00;3.90;99.70
26909;DHT22;14477;51.038;4.588;2023-02-13T05:56:26;3.90;99.70
26909;DHT22;14477;51.038;4.588;2023-02-13T05:58:54;3.90;99.70
26909;DHT22;14477;51.038;4.588;2023-02-13T06:01:20;3.80;99.70
26909;DHT22;14477;51.038;4.588;2023-02-13T06:03:46;3.80;99.70
26909;DHT22;14477;51.038;4.588;2023-02-13T06:06:12;3.80;99.70
26909;DHT22;14477;51.038;4.588;2023-02-13T06:08:38;3.80;99.70
26909;DHT22;14477;51.038;4.588;2023-02-13T06:11:04;3.70;99.60
26909;DHT22;14477;51.038;4.588;2023-02-13T06:13:30;3.70;99.60
26909;DHT22;14477;51.038;4.588;2023-02-13T06:15:56;3.70;99.60
26909;DHT22;14477;51.038;4.588;2023-02-13T06:18:22;3.70;99.50
26909;DHT22;14477;51.038;4.588;2023-02-13T06:20:48;3.70;99.50
26909;DHT22;14477;51.038;4.588;2023-02-13T06:23:14;3.60;99.50
26909;DHT22;14477;51.038;4.588;2023-02-13T06:25:40;3.60;99.40
26909;DHT22;14477;51.038;4.588;2023-02-13T06:28:05;3.60;99.40
26909;DHT22;14477;51.038;4.588;2023-02-13T06:30:32;3.50;99.40
26909;DHT22;14477;51.038;4.588;2023-02-13T06:32:58;3.50;99.40
26909;DHT22;14477;51.038;4.588;2023-02-13T06:35:24;3.50;99.30
26909;DHT22;14477;51.038;4.588;2023-02-13T06:37:50;3.50;99.30
26909;DHT22;14477;51.038;4.588;2023-02-13T06:40:16;3.40;99.30
26909;DHT22;14477;51.038;4.588;2023-02-13T06:42:43;3.40;99.30
26909;DHT22;14477;51.038;4.588;2023-02-13T06:45:09;3.30;99.20
26909;DHT22;14477;51.038;4.588;2023-02-13T06:47:36;3.30;99.30
26909;DHT22;14477;51.038;4.588;2023-02-13T06:50:05;3.20;99.30
26909;DHT22;14477;51.038;4.588;2023-02-13T06:52:31;3.20;99.30
26909;DHT22;14477;51.038;4.588;2023-02-13T06:54:57;3.10;99.30
26909;DHT22;14477;51.038;4.588;2023-02-13T06:57:23;3.10;99.30
26909;DHT22;14477;51.038;4.588;2023-02-13T06:59:49;3.10;99.40
26909;DHT22;14477;51.038;4.588;2023-02-13T07:02:15;3.10;99.40
26909;DHT22;14477;51.038;4.588;2023-02-13T07:04:40;3.10;99.40
26909;DHT22;14477;51.038;4.588;2023-02-13T07:07:06;3.10;99.40
26909;DHT22;14477;51.038;4.588;2023-02-13T07:09:32;3.10;99.40
26909;DHT22;14477;51.038;4.588;2023-02-13T07:11:58;3.00;99.40
26909;DHT22;14477;51.038;4.588;2023-02-13T07:14:26;3.00;99.40
26909;DHT22;14477;51.038;4.588;2023-02-13T07:16:54;3.00;99.50
26909;DHT22;14477;51.038;4.588;2023-02-13T07:19:19;3.00;99.50
26909;DHT22;14477;51.038;4.588;2023-02-13T07:21:45;3.00;99.50
26909;DHT22;14477;51.038;4.588;2023-02-13T07:24:11;3.00;99.60
26909;DHT22;14477;51.038;4.588;2023-02-13T07:26:36;3.00;99.60
26909;DHT22;14477;51.038;4.588;2023-02-13T07:29:02;3.10;99.70
26909;DHT22;14477;51.038;4.588;2023-02-13T07:31:32;3.10;99.90
26909;DHT22;14477;51.038;4.588;2023-02-13T07:33:58;3.10;99.90
26909;DHT22;14477;51.038;4.588;2023-02-13T07:36:25;3.20;99.90
26909;DHT22;14477;51.038;4.588;2023-02-13T07:38:50;3.20;99.90
26909;DHT22;14477;51.038;4.588;2023-02-13T07:41:16;3.30;99.90
26909;DHT22;14477;51.038;4.588;2023-02-13T07:43:42;3.40;99.90
26909;DHT22;14477;51.038;4.588;2023-02-13T07:46:08;3.50;99.90
26909;DHT22;14477;51.038;4.588;2023-02-13T07:48:34;3.70;99.90
26909;DHT22;14477;51.038;4.588;2023-02-13T07:51:01;4.00;99.90
26909;DHT22;14477;51.038;4.588;2023-02-13T07:53:27;4.20;99.90
26909;DHT22;14477;51.038;4.588;2023-02-13T07:55:53;4.50;99.90
26909;DHT22;14477;51.038;4.588;2023-02-13T07:58:19;4.80;99.90
26909;DHT22;14477;51.038;4.588;2023-02-13T08:00:45;5.20;99.90
26909;DHT22;14477;51.038;4.588;2023-02-13T08:03:11;5.50;99.90
26909;DHT22;14477;51.038;4.588;2023-02-13T08:05:36;5.90;99.90
26909;DHT22;14477;51.038;4.588;2023-02-13T08:08:03;6.20;99.90
26909;DHT22;14477;51.038;4.588;2023-02-13T08:10:29;6.50;99.90
26909;DHT22;14477;51.038;4.588;2023-02-13T08:13:14;6.70;99.90
26909;DHT22;14477;51.038;4.588;2023-02-13T08:15:40;6.90;99.90
26909;DHT22;14477;51.038;4.588;2023-02-13T08:18:06;7.00;99.90
26909;DHT22;14477;51.038;4.588;2023-02-13T08:20:32;7.10;99.90
26909;DHT22;14477;51.038;4.588;2023-02-13T08:23:03;7.10;99.90
26909;DHT22;14477;51.038;4.588;2023-02-13T08:25:29;7.10;99.90
26909;DHT22;14477;51.038;4.588;2023-02-13T08:27:55;7.20;99.90
26909;DHT22;14477;51.038;4.588;2023-02-13T08:30:21;7.20;99.90
26909;DHT22;14477;51.038;4.588;2023-02-13T08:32:46;7.30;99.90
26909;DHT22;14477;51.038;4.588;2023-02-13T08:35:12;7.30;99.90
26909;DHT22;14477;51.038;4.588;2023-02-13T08:37:38;7.30;99.90
26909;DHT22;14477;51.038;4.588;2023-02-13T08:40:04;7.30;99.90
26909;DHT22;14477;51.038;4.588;2023-02-13T08:42:30;7.30;99.90
26909;DHT22;14477;51.038;4.588;2023-02-13T08:44:56;7.30;99.90
26909;DHT22;14477;51.038;4.588;2023-02-13T08:47:21;7.30;99.90
26909;DHT22;14477;51.038;4.588;2023-02-13T08:49:47;7.20;99.90
26909;DHT22;14477;51.038;4.588;2023-02-13T08:52:13;7.20;99.90
26909;DHT22;14477;51.038;4.588;2023-02-13T08:54:39;7.20;99.90
26909;DHT22;14477;51.038;4.588;2023-02-13T08:57:05;7.10;99.90
26909;DHT22;14477;51.038;4.588;2023-02-13T08:59:31;7.10;99.90
26909;DHT22;14477;51.038;4.588;2023-02-13T09:01:56;7.20;99.90
26909;DHT22;14477;51.038;4.588;2023-02-13T09:04:22;7.20;99.90
26909;DHT22;14477;51.038;4.588;2023-02-13T09:06:48;7.30;99.90
26909;DHT22;14477;51.038;4.588;2023-02-13T09:09:14;7.40;99.90
26909;DHT22;14477;51.038;4.588;2023-02-13T09:11:40;7.50;99.90
26909;DHT22;14477;51.038;4.588;2023-02-13T09:14:06;7.60;99.90
26909;DHT22;14477;51.038;4.588;2023-02-13T09:16:32;7.60;99.90
26909;DHT22;14477;51.038;4.588;2023-02-13T09:18:57;7.80;99.90
26909;DHT22;14477;51.038;4.588;2023-02-13T09:21:23;7.90;99.90
26909;DHT22;14477;51.038;4.588;2023-02-13T09:23:49;8.10;99.90
26909;DHT22;14477;51.038;4.588;2023-02-13T09:26:17;8.40;99.90
26909;DHT22;14477;51.038;4.588;2023-02-13T09:28:43;8.60;99.90
26909;DHT22;14477;51.038;4.588;2023-02-13T09:31:11;9.00;99.90
26909;DHT22;14477;51.038;4.588;2023-02-13T09:33:39;9.40;99.90
26909;DHT22;14477;51.038;4.588;2023-02-13T09:36:07;9.90;99.90
26909;DHT22;14477;51.038;4.588;2023-02-13T09:38:33;10.50;99.90
26909;DHT22;14477;51.038;4.588;2023-02-13T09:41:05;11.20;99.90
26909;DHT22;14477;51.038;4.588;2023-02-13T09:46:37;12.50;99.90
26909;DHT22;14477;51.038;4.588;2023-02-13T09:49:17;13.10;99.90
26909;DHT22;14477;51.038;4.588;2023-02-13T09:51:49;13.80;99.90
26909;DHT22;14477;51.038;4.588;2023-02-13T09:54:18;14.40;99.90
26909;DHT22;14477;51.038;4.588;2023-02-13T10:18:54;18.70;99.90
26909;DHT22;14477;51.038;4.588;2023-02-13T10:21:29;19.10;99.80
26909;DHT22;14477;51.038;4.588;2023-02-13T10:24:10;19.40;99.90
26909;DHT22;14477;51.038;4.588;2023-02-13T10:26:41;19.70;99.00
26909;DHT22;14477;51.038;4.588;2023-02-13T10:29:23;20.00;99.90
26909;DHT22;14477;51.038;4.588;2023-02-13T10:32:10;20.30;99.30
26909;DHT22;14477;51.038;4.588;2023-02-13T10:34:44;20.60;99.90
26909;DHT22;14477;51.038;4.588;2023-02-13T10:37:19;20.90;99.80
26909;DHT22;14477;51.038;4.588;2023-02-13T10:39:49;21.20;98.80
26909;DHT22;14477;51.038;4.588;2023-02-13T10:45:02;21.70;97.10
26909;DHT22;14477;51.038;4.588;2023-02-13T10:47:57;22.00;97.30
26909;DHT22;14477;51.038;4.588;2023-02-13T10:53:13;22.60;98.50
26909;DHT22;14477;51.038;4.588;2023-02-13T10:56:01;22.80;98.30
26909;DHT22;14477;51.038;4.588;2023-02-13T10:58:31;23.00;96.50
26909;DHT22;14477;51.038;4.588;2023-02-13T11:01:12;23.30;98.90
26909;DHT22;14477;51.038;4.588;2023-02-13T11:03:40;23.50;96.50
26909;DHT22;14477;51.038;4.588;2023-02-13T11:06:08;23.70;97.90
26909;DHT22;14477;51.038;4.588;2023-02-13T11:08:43;23.90;97.00
26909;DHT22;14477;51.038;4.588;2023-02-13T11:11:39;24.00;95.70
26909;DHT22;14477;51.038;4.588;2023-02-13T11:14:20;24.20;93.80
26909;DHT22;14477;51.038;4.588;2023-02-13T11:17:00;24.30;93.90
26909;DHT22;14477;51.038;4.588;2023-02-13T11:19:39;24.40;95.50
26909;DHT22;14477;51.038;4.588;2023-02-13T11:22:14;24.60;93.50
26909;DHT22;14477;51.038;4.588;2023-02-13T11:24:52;24.70;95.20
26909;DHT22;14477;51.038;4.588;2023-02-13T11:27:25;24.70;91.60
26909;DHT22;14477;51.038;4.588;2023-02-13T11:30:00;24.80;93.90
26909;DHT22;14477;51.038;4.588;2023-02-13T11:32:28;24.90;93.50
26909;DHT22;14477;51.038;4.588;2023-02-13T11:34:55;25.00;94.50
26909;DHT22;14477;51.038;4.588;2023-02-13T11:37:26;25.00;95.00
26909;DHT22;14477;51.038;4.588;2023-02-13T11:39:57;25.10;94.20
26909;DHT22;14477;51.038;4.588;2023-02-13T11:42:26;25.20;94.30
26909;DHT22;14477;51.038;4.588;2023-02-13T11:45:22;25.30;94.00
26909;DHT22;14477;51.038;4.588;2023-02-13T11:47:48;25.40;91.00
26909;DHT22;14477;51.038;4.588;2023-02-13T11:50:25;25.60;95.00
26909;DHT22;14477;51.038;4.588;2023-02-13T11:55:34;25.90;94.20
26909;DHT22;14477;51.038;4.588;2023-02-13T11:58:22;26.00;91.00
26909;DHT22;14477;51.038;4.588;2023-02-13T12:00:48;26.00;90.20
26909;DHT22;14477;51.038;4.588;2023-02-13T12:08:36;26.30;89.70
26909;DHT22;14477;51.038;4.588;2023-02-13T12:11:33;26.40;92.70
26909;DHT22;14477;51.038;4.588;2023-02-13T12:13:54;26.40;90.60
26909;DHT22;14477;51.038;4.588;2023-02-13T12:16:39;26.50;92.50
26909;DHT22;14477;51.038;4.588;2023-02-13T12:19:18;26.40;88.40
26909;DHT22;14477;51.038;4.588;2023-02-13T12:35:34;26.60;87.10
26909;DHT22;14477;51.038;4.588;2023-02-13T12:38:15;26.60;90.30
26909;DHT22;14477;51.038;4.588;2023-02-13T12:46:04;26.60;90.10
26909;DHT22;14477;51.038;4.588;2023-02-13T12:48:50;26.60;90.00
26909;DHT22;14477;51.038;4.588;2023-02-13T13:05:05;26.40;81.30
26909;DHT22;14477;51.038;4.588;2023-02-13T13:07:58;26.30;79.10
26909;DHT22;14477;51.038;4.588;2023-02-13T13:18:50;26.20;79.10
26909;DHT22;14477;51.038;4.588;2023-02-13T13:26:43;26.20;80.30
26909;DHT22;14477;51.038;4.588;2023-02-13T13:29:23;26.20;80.90
26909;DHT22;14477;51.038;4.588;2023-02-13T13:31:54;26.10;76.90
26909;DHT22;14477;51.038;4.588;2023-02-13T13:34:24;26.00;79.80
26909;DHT22;14477;51.038;4.588;2023-02-13T13:36:59;26.00;78.10
26909;DHT22;14477;51.038;4.588;2023-02-13T13:42:19;26.00;80.20
26909;DHT22;14477;51.038;4.588;2023-02-13T13:45:28;26.10;73.50
26909;DHT22;14477;51.038;4.588;2023-02-13T13:50:40;26.10;72.90
26909;DHT22;14477;51.038;4.588;2023-02-13T13:53:13;26.10;77.30
26909;DHT22;14477;51.038;4.588;2023-02-13T14:11:53;25.90;70.20
26909;DHT22;14477;51.038;4.588;2023-02-13T14:16:59;25.80;69.80
26909;DHT22;14477;51.038;4.588;2023-02-13T14:19:36;25.80;72.70
26909;DHT22;14477;51.038;4.588;2023-02-13T14:24:56;25.60;67.60
26909;DHT22;14477;51.038;4.588;2023-02-13T14:29:49;25.50;70.10
26909;DHT22;14477;51.038;4.588;2023-02-13T14:32:24;25.40;70.20
26909;DHT22;14477;51.038;4.588;2023-02-13T14:35:01;25.30;68.10
26909;DHT22;14477;51.038;4.588;2023-02-13T14:37:36;25.20;67.50
26909;DHT22;14477;51.038;4.588;2023-02-13T14:42:37;24.90;67.30
26909;DHT22;14477;51.038;4.588;2023-02-13T14:45:12;24.70;67.90
26909;DHT22;14477;51.038;4.588;2023-02-13T14:47:51;24.50;66.60
26909;DHT22;14477;51.038;4.588;2023-02-13T14:50:31;24.30;67.40
26909;DHT22;14477;51.038;4.588;2023-02-13T14:53:00;24.00;66.70
26909;DHT22;14477;51.038;4.588;2023-02-13T14:55:35;23.80;67.50
26909;DHT22;14477;51.038;4.588;2023-02-13T15:01:04;23.30;67.70
26909;DHT22;14477;51.038;4.588;2023-02-13T15:03:46;23.00;65.50
26909;DHT22;14477;51.038;4.588;2023-02-13T15:07:01;22.80;66.10
26909;DHT22;14477;51.038;4.588;2023-02-13T15:09:37;22.50;66.20
26909;DHT22;14477;51.038;4.588;2023-02-13T15:12:26;22.20;65.00
26909;DHT22;14477;51.038;4.588;2023-02-13T15:14:53;22.00;65.80
26909;DHT22;14477;51.038;4.588;2023-02-13T15:17:23;21.80;68.00
26909;DHT22;14477;51.038;4.588;2023-02-13T15:20:36;21.70;67.50
26909;DHT22;14477;51.038;4.588;2023-02-13T15:22:45;21.60;68.10
26909;DHT22;14477;51.038;4.588;2023-02-13T15:25:33;21.50;66.80
26909;DHT22;14477;51.038;4.588;2023-02-13T15:28:02;21.40;66.30
26909;DHT22;14477;51.038;4.588;2023-02-13T15:30:30;21.20;67.70
26909;DHT22;14477;51.038;4.588;2023-02-13T15:32:59;21.00;67.50
26909;DHT22;14477;51.038;4.588;2023-02-13T15:35:31;20.80;67.30
26909;DHT22;14477;51.038;4.588;2023-02-13T15:38:16;20.60;67.20
26909;DHT22;14477;51.038;4.588;2023-02-13T15:40:43;20.40;67.40
26909;DHT22;14477;51.038;4.588;2023-02-13T15:43:21;20.20;67.40
26909;DHT22;14477;51.038;4.588;2023-02-13T15:45:47;19.90;67.20
26909;DHT22;14477;51.038;4.588;2023-02-13T15:48:15;19.70;67.80
26909;DHT22;14477;51.038;4.588;2023-02-13T15:50:42;19.50;67.70
26909;DHT22;14477;51.038;4.588;2023-02-13T15:53:15;19.20;68.20
26909;DHT22;14477;51.038;4.588;2023-02-13T15:55:58;19.10;67.80
26909;DHT22;14477;51.038;4.588;2023-02-13T15:58:30;19.00;67.90
26909;DHT22;14477;51.038;4.588;2023-02-13T16:01:04;18.90;68.50
26909;DHT22;14477;51.038;4.588;2023-02-13T16:03:32;18.80;68.60
26909;DHT22;14477;51.038;4.588;2023-02-13T16:05:59;18.70;69.10
26909;DHT22;14477;51.038;4.588;2023-02-13T16:08:36;18.60;69.20
26909;DHT22;14477;51.038;4.588;2023-02-13T16:14:03;18.40;69.50
26909;DHT22;14477;51.038;4.588;2023-02-13T16:19:28;18.30;70.10
26909;DHT22;14477;51.038;4.588;2023-02-13T16:21:56;18.30;70.00
26909;DHT22;14477;51.038;4.588;2023-02-13T16:24:23;18.20;70.40
26909;DHT22;14477;51.038;4.588;2023-02-13T16:26:51;18.20;70.70
26909;DHT22;14477;51.038;4.588;2023-02-13T16:29:20;18.30;71.00
26909;DHT22;14477;51.038;4.588;2023-02-13T16:31:47;18.20;71.10
26909;DHT22;14477;51.038;4.588;2023-02-13T16:34:33;18.20;71.30
26909;DHT22;14477;51.038;4.588;2023-02-13T16:36:59;18.20;71.40
26909;DHT22;14477;51.038;4.588;2023-02-13T16:39:28;18.10;71.60
26909;DHT22;14477;51.038;4.588;2023-02-13T16:41:55;18.10;71.00
26909;DHT22;14477;51.038;4.588;2023-02-13T16:44:30;18.00;71.00
26909;DHT22;14477;51.038;4.588;2023-02-13T16:47:03;17.90;70.30
26909;DHT22;14477;51.038;4.588;2023-02-13T16:49:34;17.80;70.60
26909;DHT22;14477;51.038;4.588;2023-02-13T16:52:16;17.70;70.30
26909;DHT22;14477;51.038;4.588;2023-02-13T17:07:17;16.80;70.50
26909;DHT22;14477;51.038;4.588;2023-02-13T17:09:43;16.70;71.00
26909;DHT22;14477;51.038;4.588;2023-02-13T17:12:15;16.50;71.30
26909;DHT22;14477;51.038;4.588;2023-02-13T17:14:41;16.40;71.20
26909;DHT22;14477;51.038;4.588;2023-02-13T17:17:16;16.20;71.20
26909;DHT22;14477;51.038;4.588;2023-02-13T17:19:43;16.10;71.20
26909;DHT22;14477;51.038;4.588;2023-02-13T17:25:17;15.80;71.20
26909;DHT22;14477;51.038;4.588;2023-02-13T17:27:44;15.60;71.50
26909;DHT22;14477;51.038;4.588;2023-02-13T17:30:15;15.50;71.70
26909;DHT22;14477;51.038;4.588;2023-02-13T17:32:42;15.40;71.90
26909;DHT22;14477;51.038;4.588;2023-02-13T17:35:10;15.30;72.20
26909;DHT22;14477;51.038;4.588;2023-02-13T17:37:36;15.20;72.40
26909;DHT22;14477;51.038;4.588;2023-02-13T17:40:02;15.00;72.40
26909;DHT22;14477;51.038;4.588;2023-02-13T17:42:29;15.00;72.50
26909;DHT22;14477;51.038;4.588;2023-02-13T17:44:56;14.90;72.40
26909;DHT22;14477;51.038;4.588;2023-02-13T17:47:24;14.70;72.40
26909;DHT22;14477;51.038;4.588;2023-02-13T17:49:50;14.60;73.10
26909;DHT22;14477;51.038;4.588;2023-02-13T17:52:20;14.50;72.60
26909;DHT22;14477;51.038;4.588;2023-02-13T17:54:48;14.40;72.60
26909;DHT22;14477;51.038;4.588;2023-02-13T17:57:15;14.20;72.70
26909;DHT22;14477;51.038;4.588;2023-02-13T17:59:42;14.10;72.90
26909;DHT22;14477;51.038;4.588;2023-02-13T18:02:17;14.10;73.20
26909;DHT22;14477;51.038;4.588;2023-02-13T18:04:43;13.90;73.40
26909;DHT22;14477;51.038;4.588;2023-02-13T18:07:11;13.80;73.60
26909;DHT22;14477;51.038;4.588;2023-02-13T18:09:37;13.80;73.90
26909;DHT22;14477;51.038;4.588;2023-02-13T18:12:06;13.70;73.90
26909;DHT22;14477;51.038;4.588;2023-02-13T18:14:33;13.60;73.90
26909;DHT22;14477;51.038;4.588;2023-02-13T18:16:59;13.50;73.60
26909;DHT22;14477;51.038;4.588;2023-02-13T18:19:25;13.40;73.70
26909;DHT22;14477;51.038;4.588;2023-02-13T18:21:51;13.30;73.80
26909;DHT22;14477;51.038;4.588;2023-02-13T18:24:17;13.20;74.00
26909;DHT22;14477;51.038;4.588;2023-02-13T18:26:43;13.10;74.20
26909;DHT22;14477;51.038;4.588;2023-02-13T18:29:08;13.00;74.30
26909;DHT22;14477;51.038;4.588;2023-02-13T18:31:34;12.90;74.50
26909;DHT22;14477;51.038;4.588;2023-02-13T18:34:00;12.90;74.50
26909;DHT22;14477;51.038;4.588;2023-02-13T18:36:26;12.80;74.60
26909;DHT22;14477;51.038;4.588;2023-02-13T18:38:52;12.70;74.50
26909;DHT22;14477;51.038;4.588;2023-02-13T18:41:18;12.70;74.40
26909;DHT22;14477;51.038;4.588;2023-02-13T18:43:44;12.60;74.50
26909;DHT22;14477;51.038;4.588;2023-02-13T18:46:10;12.50;74.50
26909;DHT22;14477;51.038;4.588;2023-02-13T18:48:36;12.40;74.70
26909;DHT22;14477;51.038;4.588;2023-02-13T18:51:02;12.40;75.00
26909;DHT22;14477;51.038;4.588;2023-02-13T18:53:28;12.30;75.00
26909;DHT22;14477;51.038;4.588;2023-02-13T18:56:05;12.20;75.30
26909;DHT22;14477;51.038;4.588;2023-02-13T18:58:31;12.10;75.50
26909;DHT22;14477;51.038;4.588;2023-02-13T19:01:18;12.00;75.50